Time;durP1;ratioP1;P1;durP2;ratioP2;P2;SDS_P1;SDS_P2;PMS_P1;PMS_P2;Temp;Humidity;BMP_temperature;BMP_pressure;BME280_temperature;BME280_humidity;BME280_pressure;Samples;Min_cycle;Max_cycle;Signal;HPM_P1;HPM_P2
2022/07/12 00:01:20;;;;;;;0.60;0.60;;;;;;;20.05;51.99;101013.09;4886057;29;20170;-72
2022/07/12 00:03:46;;;;;;;0.80;0.75;;;;;;;20.03;52.02;101024.53;4901994;29;20112;-70
2022/07/12 00:06:12;;;;;;;1.38;0.63;;;;;;;20.03;52.48;101016.19;4868371;29;20040;-71
2022/07/12 00:08:38;;;;;;;2.33;0.80;;;;;;;20.02;52.18;101019.28;4883614;29;20040;-73
2022/07/12 00:11:04;;;;;;;0.52;0.52;;;;;;;20.02;51.76;101014.53;4889045;29;20031;-71
2022/07/12 00:13:30;;;;;;;0.70;0.70;;;;;;;20.05;51.90;101018.66;4907151;29;20026;-71
2022/07/12 00:15:56;;;;;;;0.55;0.45;;;;;;;20.05;52.33;101019.47;4893973;29;20031;-73
2022/07/12 00:18:22;;;;;;;1.60;0.55;;;;;;;20.04;51.92;101017.81;4902830;29;20456;-71
2022/07/12 00:20:47;;;;;;;0.93;0.60;;;;;;;20.08;52.26;101017.19;4901470;29;20115;-71
2022/07/12 00:23:13;;;;;;;1.20;0.50;;;;;;;20.08;51.81;101017.19;4885995;29;20136;-72
2022/07/12 00:25:38;;;;;;;0.43;0.43;;;;;;;20.08;51.76;101022.72;4868689;29;20124;-70
2022/07/12 00:28:04;;;;;;;0.40;0.40;;;;;;;20.07;52.10;101015.56;4887907;29;20028;-71
2022/07/12 00:30:29;;;;;;;0.88;0.50;;;;;;;20.07;52.10;101018.34;4882418;29;20494;-72
2022/07/12 00:32:54;;;;;;;0.68;0.47;;;;;;;20.07;52.01;101015.56;4885175;29;20033;-71
2022/07/12 00:35:20;;;;;;;0.98;0.60;;;;;;;20.07;51.98;101016.38;4884606;29;20043;-72
2022/07/12 00:37:45;;;;;;;0.40;0.38;;;;;;;20.02;51.93;101014.53;4869277;29;20135;-72
2022/07/12 00:40:12;;;;;;;0.40;0.40;;;;;;;19.97;51.54;101009.09;4895867;29;20116;-71
2022/07/12 00:42:38;;;;;;;0.40;0.30;;;;;;;20.03;51.80;101015.34;4902906;29;20036;-70
2022/07/12 00:45:05;;;;;;;0.45;0.30;;;;;;;20.03;52.21;101016.19;4882549;29;20021;-72
2022/07/12 00:47:40;;;;;;;0.35;0.28;;;;;;;20.09;52.06;101021.59;4900822;29;20051;-72
2022/07/12 00:50:24;;;;;;;0.38;0.38;;;;;;;20.07;51.68;101021.09;4901581;29;20068;-72
2022/07/12 00:52:51;;;;;;;0.47;0.30;;;;;;;20.04;52.18;101017.00;4879409;29;20029;-72
2022/07/12 00:55:19;;;;;;;1.45;0.40;;;;;;;20.01;52.48;101012.09;4897885;29;20867;-73
2022/07/12 00:57:45;;;;;;;0.60;0.60;;;;;;;19.90;52.62;101005.94;4903872;29;20037;-73
2022/07/12 01:00:19;;;;;;;1.17;0.60;;;;;;;19.87;52.94;101007.44;4901259;29;20045;-73
2022/07/12 01:02:46;;;;;;;0.65;0.65;;;;;;;19.86;53.36;101013.28;4902540;29;20025;-72
2022/07/12 01:05:12;;;;;;;0.80;0.80;;;;;;;19.84;53.71;101013.59;4883465;29;20032;-72
2022/07/12 01:07:38;;;;;;;2.80;0.52;;;;;;;19.78;53.88;101009.28;4892510;29;20031;-70
2022/07/12 01:10:05;;;;;;;1.27;0.80;;;;;;;19.75;53.61;101009.09;4896655;29;20049;-72
2022/07/12 01:12:31;;;;;;;1.75;0.80;;;;;;;19.73;54.51;101011.34;4883176;29;20103;-71
2022/07/12 01:14:57;;;;;;;2.33;1.15;;;;;;;19.69;54.95;101011.97;4881468;29;20056;-71
2022/07/12 01:17:26;;;;;;;1.40;1.00;;;;;;;19.66;55.09;101009.81;4900481;29;20088;-70
2022/07/12 01:19:54;;;;;;;1.08;0.63;;;;;;;19.64;55.03;101009.31;4882743;29;20030;-71
2022/07/12 01:22:26;;;;;;;2.55;0.70;;;;;;;19.59;55.21;101006.66;4882631;29;20047;-71
2022/07/12 01:24:52;;;;;;;1.17;0.73;;;;;;;19.58;54.83;101021.69;4902378;29;20499;-72
2022/07/12 01:27:17;;;;;;;1.10;0.75;;;;;;;19.56;55.41;101018.38;4880557;29;20036;-71
2022/07/12 01:29:43;;;;;;;1.45;0.82;;;;;;;19.51;55.10;101015.75;4899494;29;20123;-72
2022/07/12 01:32:29;;;;;;;0.88;0.60;;;;;;;19.49;54.87;101013.28;4885091;29;20044;-73
2022/07/12 01:35:05;;;;;;;0.77;0.50;;;;;;;19.45;55.25;101000.31;4884858;29;20436;-71
2022/07/12 01:37:34;;;;;;;0.73;0.60;;;;;;;19.44;55.74;100977.31;4885200;29;20043;-72
2022/07/12 01:40:00;;;;;;;0.68;0.60;;;;;;;19.46;55.65;100999.19;4896466;29;20116;-72
2022/07/12 01:42:27;;;;;;;0.80;0.60;;;;;;;19.42;55.70;101000.94;4884415;29;20399;-72
2022/07/12 01:44:53;;;;;;;0.52;0.50;;;;;;;19.35;55.96;100999.44;4884233;29;20051;-72
2022/07/12 01:47:20;;;;;;;0.40;0.40;;;;;;;19.31;56.19;100995.63;4901966;29;20361;-72
2022/07/12 01:49:46;;;;;;;1.27;0.70;;;;;;;19.27;55.96;100994.59;4905397;29;20118;-71
2022/07/12 01:52:12;;;;;;;1.02;0.68;;;;;;;19.25;56.07;100996.88;4899699;29;20072;-73
2022/07/12 01:54:38;;;;;;;0.40;0.40;;;;;;;19.19;56.33;100987.03;4896387;29;20028;-71
2022/07/12 01:57:04;;;;;;;0.55;0.55;;;;;;;19.14;56.19;100989.91;4884050;29;20532;-73
2022/07/12 01:59:30;;;;;;;1.25;0.80;;;;;;;19.10;56.70;100984.19;4901592;29;20025;-74
2022/07/12 02:01:56;;;;;;;0.82;0.77;;;;;;;19.07;56.43;100983.97;4902558;29;20031;-72
2022/07/12 02:04:22;;;;;;;1.17;0.63;;;;;;;19.05;56.73;100986.25;4900713;29;20032;-71
2022/07/12 02:06:48;;;;;;;0.95;0.68;;;;;;;19.01;57.14;100997.09;4892189;29;20444;-71
2022/07/12 02:09:14;;;;;;;1.38;0.90;;;;;;;18.97;56.74;100996.91;4899133;29;20040;-72
2022/07/12 02:11:41;;;;;;;1.02;0.60;;;;;;;18.95;57.00;100999.19;4882848;29;20044;-72
2022/07/12 02:14:07;;;;;;;4.40;0.77;;;;;;;18.95;56.88;101003.91;4884694;29;20040;-73
2022/07/12 02:16:32;;;;;;;0.95;0.68;;;;;;;18.93;57.32;101001.44;4899014;29;20033;-72
2022/07/12 02:18:58;;;;;;;1.70;0.77;;;;;;;18.89;56.66;100994.88;4900612;29;20492;-72
2022/07/12 02:21:23;;;;;;;1.25;0.70;;;;;;;18.87;56.71;100993.56;4886264;29;20036;-71
2022/07/12 02:23:49;;;;;;;0.60;0.60;;;;;;;18.84;56.77;101001.31;4896450;29;20047;-72
2022/07/12 02:26:15;;;;;;;0.82;0.65;;;;;;;18.80;57.44;100997.50;4884829;29;20043;-73
2022/07/12 02:28:41;;;;;;;0.98;0.70;;;;;;;18.76;57.47;100996.50;4884934;29;20064;-72
2022/07/12 02:31:07;;;;;;;0.90;0.77;;;;;;;18.68;58.03;100994.44;4881989;29;20500;-72
2022/07/12 02:33:32;;;;;;;0.82;0.50;;;;;;;18.58;57.57;100983.56;4901846;29;20558;-71
2022/07/12 02:35:58;;;;;;;1.02;0.70;;;;;;;18.53;57.91;100981.72;4910367;29;20028;-72
2022/07/12 02:38:23;;;;;;;1.63;0.80;;;;;;;18.48;57.90;100995.63;4894523;29;20039;-72
2022/07/12 02:40:54;;;;;;;0.75;0.63;;;;;;;18.46;58.01;100986.81;4883439;29;20025;-72
2022/07/12 02:43:27;;;;;;;2.05;0.50;;;;;;;18.52;58.34;100982.81;4899485;29;20073;-72
2022/07/12 02:46:02;;;;;;;1.48;0.65;;;;;;;18.61;58.22;100964.34;4900354;29;20028;-71
2022/07/12 02:48:27;;;;;;;0.65;0.60;;;;;;;18.67;57.96;100965.91;4900866;29;20031;-73
2022/07/12 02:50:52;;;;;;;0.65;0.40;;;;;;;18.74;57.71;100959.16;4901498;29;20040;-72
2022/07/12 02:53:18;;;;;;;0.60;0.60;;;;;;;18.74;58.18;100959.94;4896011;29;20055;-72
2022/07/12 02:55:44;;;;;;;0.80;0.55;;;;;;;18.76;58.25;100979.88;4898150;29;20033;-72
2022/07/12 02:58:11;;;;;;;0.60;0.60;;;;;;;18.76;58.08;100984.56;4880936;29;20120;-72
2022/07/12 03:00:37;;;;;;;0.75;0.60;;;;;;;18.74;58.52;100997.94;4900135;29;20698;-72
2022/07/12 03:03:03;;;;;;;0.55;0.55;;;;;;;18.73;58.77;100993.50;4900781;29;20113;-70
2022/07/12 03:05:28;;;;;;;1.85;0.73;;;;;;;18.74;58.33;100995.16;4881713;29;20807;-71
2022/07/12 03:07:53;;;;;;;1.27;0.70;;;;;;;18.76;58.43;100990.97;4890237;29;20039;-71
2022/07/12 03:10:19;;;;;;;0.75;0.60;;;;;;;18.80;58.69;100982.84;4899844;29;20025;-73
2022/07/12 03:12:45;;;;;;;0.77;0.60;;;;;;;18.84;58.45;100975.56;4867086;29;20033;-73
2022/07/12 03:15:10;;;;;;;0.40;0.40;;;;;;;18.89;58.22;100967.16;4900581;29;20035;-72
2022/07/12 03:17:36;;;;;;;0.60;0.57;;;;;;;18.92;58.13;100972.06;4865803;29;20041;-72
2022/07/12 03:20:04;;;;;;;0.32;0.30;;;;;;;18.94;58.35;100975.38;4857400;29;20465;-71
2022/07/12 03:22:29;;;;;;;1.05;0.60;;;;;;;18.95;58.44;100988.09;4864391;29;20124;-72
2022/07/12 03:24:55;;;;;;;1.58;0.70;;;;;;;18.90;58.07;100996.50;4842258;29;20525;-71
2022/07/12 03:27:20;;;;;;;1.15;0.90;;;;;;;18.87;58.53;100990.78;4878540;29;20037;-72
2022/07/12 03:29:45;;;;;;;0.80;0.80;;;;;;;18.86;58.19;100992.72;4882433;29;20021;-73
2022/07/12 03:32:11;;;;;;;1.10;0.70;;;;;;;18.86;58.55;100983.56;4864808;29;20120;-72
2022/07/12 03:34:37;;;;;;;1.58;0.73;;;;;;;18.86;58.64;100978.00;4863918;29;20100;-73
2022/07/12 03:37:03;;;;;;;0.70;0.60;;;;;;;18.88;58.43;100984.09;4874614;29;20504;-73
2022/07/12 03:39:28;;;;;;;0.68;0.60;;;;;;;18.85;58.69;100979.94;4874253;29;20056;-73
2022/07/12 03:41:54;;;;;;;1.02;0.82;;;;;;;18.83;58.96;100983.03;4851878;29;20154;-72
2022/07/12 03:44:19;;;;;;;0.82;0.55;;;;;;;18.82;58.77;100977.78;4848870;29;20065;-72
2022/07/12 03:46:45;;;;;;;0.60;0.60;;;;;;;18.79;58.42;100978.41;4884649;29;20044;-72
2022/07/12 03:49:10;;;;;;;0.50;0.50;;;;;;;18.70;59.03;100966.41;4881464;29;20081;-71
2022/07/12 03:51:36;;;;;;;0.52;0.43;;;;;;;18.62;59.28;100974.31;4883406;29;20029;-71
2022/07/12 03:54:02;;;;;;;1.00;0.52;;;;;;;18.52;59.43;100968.97;4843796;29;20042;-72
2022/07/12 03:59:12;;;;;;;0.80;0.80;;;;;;;18.33;60.15;100971.81;4883473;29;20036;-71
2022/07/12 04:01:37;;;;;;;1.40;1.05;;;;;;;18.22;60.41;100976.72;4868524;29;20049;-71
2022/07/12 04:04:02;;;;;;;2.72;1.00;;;;;;;18.07;60.88;100974.22;4884220;29;20034;-72
2022/07/12 04:06:28;;;;;;;0.80;0.80;;;;;;;17.98;60.96;100967.75;4893322;29;20175;-71
2022/07/12 04:08:54;;;;;;;1.85;1.00;;;;;;;17.93;61.46;100968.66;4883188;29;20093;-72
2022/07/12 04:11:20;;;;;;;1.38;0.88;;;;;;;17.90;61.50;100964.56;4893774;29;20128;-72
2022/07/12 04:13:45;;;;;;;1.33;0.60;;;;;;;17.92;60.94;100967.84;4884006;29;20041;-73
2022/07/12 04:16:10;;;;;;;0.60;0.60;;;;;;;17.95;60.94;100956.16;4881473;29;20138;-72
2022/07/12 04:18:36;;;;;;;0.70;0.50;;;;;;;18.07;60.64;100944.59;4880592;29;20158;-73
2022/07/12 04:21:01;;;;;;;0.63;0.40;;;;;;;18.11;60.69;100947.59;4874096;29;20040;-71
2022/07/12 04:23:27;;;;;;;0.40;0.40;;;;;;;18.10;60.62;100940.41;4893419;29;20472;-72
2022/07/12 04:25:52;;;;;;;0.90;0.40;;;;;;;18.09;60.58;100944.28;4883164;29;20028;-72
2022/07/12 04:28:17;;;;;;;0.50;0.50;;;;;;;18.10;60.57;100951.47;4883785;29;20021;-73
2022/07/12 04:30:44;;;;;;;0.50;0.50;;;;;;;18.09;60.58;100944.28;4899819;29;20021;-72
2022/07/12 04:33:10;;;;;;;0.50;0.50;;;;;;;18.14;60.58;100953.34;4903132;29;20123;-71
2022/07/12 04:35:36;;;;;;;0.45;0.40;;;;;;;18.19;60.57;100951.59;4900577;29;20033;-72
2022/07/12 04:38:02;;;;;;;0.57;0.30;;;;;;;18.28;60.38;100941.47;4890080;29;20029;-72
2022/07/12 04:40:27;;;;;;;0.30;0.30;;;;;;;18.35;60.56;100947.41;4883488;29;20041;-73
2022/07/12 04:42:53;;;;;;;0.52;0.40;;;;;;;18.34;59.91;100933.88;4901425;29;20516;-71
2022/07/12 04:45:18;;;;;;;0.50;0.38;;;;;;;18.35;60.05;100935.53;4901278;29;20108;-71
2022/07/12 04:47:44;;;;;;;0.30;0.30;;;;;;;18.40;60.16;100933.50;4880193;29;20032;-72
2022/07/12 04:50:09;;;;;;;2.83;0.38;;;;;;;18.47;60.24;100941.38;4879659;29;20032;-72
2022/07/12 04:52:35;;;;;;;0.90;0.60;;;;;;;18.49;59.83;100944.66;4901749;29;20400;-71
2022/07/12 04:55:00;;;;;;;1.08;0.45;;;;;;;18.48;60.20;100956.88;4855579;29;20039;-72
2022/07/12 04:57:26;;;;;;;0.43;0.40;;;;;;;18.51;60.27;100956.25;4902483;29;20033;-72
2022/07/12 04:59:52;;;;;;;2.55;0.40;;;;;;;18.55;59.70;100962.81;4890254;29;20055;-72
2022/07/12 05:02:17;;;;;;;1.55;0.80;;;;;;;18.57;60.18;100960.56;4900414;29;20039;-71
2022/07/12 05:04:42;;;;;;;2.00;0.85;;;;;;;18.64;59.57;100972.06;4901016;29;20036;-71
2022/07/12 05:07:08;;;;;;;1.90;1.00;;;;;;;18.71;59.67;100981.94;4893084;29;20033;-71
2022/07/12 05:09:34;;;;;;;2.42;1.17;;;;;;;18.81;59.61;100987.25;4871707;29;20080;-72
2022/07/12 05:11:59;;;;;;;1.38;0.80;;;;;;;18.89;59.94;100989.31;4882172;29;20025;-71
2022/07/12 05:14:25;;;;;;;1.52;0.95;;;;;;;18.98;59.03;100997.72;4871589;29;20028;-71
2022/07/12 05:16:50;;;;;;;1.67;1.20;;;;;;;19.01;59.30;101014.56;4874840;29;20499;-71
2022/07/12 05:19:16;;;;;;;2.53;1.25;;;;;;;19.04;59.49;101007.59;4881989;29;20535;-71
2022/07/12 05:21:42;;;;;;;2.13;1.20;;;;;;;19.06;59.86;101004.53;4882466;29;20115;-72
2022/07/12 05:24:08;;;;;;;1.25;0.95;;;;;;;19.12;59.48;101006.06;4867167;29;20557;-71
2022/07/12 05:26:34;;;;;;;2.38;1.45;;;;;;;19.18;59.81;101015.88;4902193;29;20085;-71
2022/07/12 05:28:59;;;;;;;3.03;1.20;;;;;;;19.21;59.43;101022.78;4899531;29;20051;-73
2022/07/12 05:31:25;;;;;;;1.83;1.10;;;;;;;19.23;59.70;101021.34;4900100;29;20032;-72
2022/07/12 05:33:50;;;;;;;4.32;1.48;;;;;;;19.31;59.00;101022.56;4869192;29;20520;-73
2022/07/12 05:36:16;;;;;;;2.33;1.23;;;;;;;19.39;58.59;101029.31;4902679;29;20372;-72
2022/07/12 05:38:41;;;;;;;2.60;1.20;;;;;;;19.34;59.11;101031.06;4883846;29;20034;-72
2022/07/12 05:41:07;;;;;;;1.95;1.33;;;;;;;19.34;58.48;101031.06;4898870;29;20025;-73
2022/07/12 05:43:32;;;;;;;1.77;0.95;;;;;;;19.44;58.78;101015.34;4895265;29;20024;-72
2022/07/12 05:45:58;;;;;;;0.50;0.50;;;;;;;19.63;58.47;101006.88;4880383;29;20098;-72
2022/07/12 05:48:23;;;;;;;0.90;0.68;;;;;;;19.89;57.70;101004.34;4900994;29;20052;-71
2022/07/12 05:50:49;;;;;;;1.00;0.60;;;;;;;20.11;57.71;101003.50;4892638;29;20032;-71
2022/07/12 05:53:23;;;;;;;1.10;0.70;;;;;;;20.26;56.96;100982.84;4873356;29;20029;-71
2022/07/12 05:55:53;;;;;;;1.85;0.68;;;;;;;20.37;56.86;100981.44;4890128;29;20028;-72
2022/07/12 05:58:19;;;;;;;2.53;0.90;;;;;;;20.42;56.98;100983.25;4883617;29;20033;-72
2022/07/12 06:00:46;;;;;;;2.08;1.05;;;;;;;20.34;56.73;100961.81;4872117;29;20036;-72
2022/07/12 06:03:13;;;;;;;2.83;0.80;;;;;;;20.39;56.99;100962.47;4884479;29;20025;-70
2022/07/12 06:05:39;;;;;;;1.08;0.75;;;;;;;20.37;56.94;100950.88;4868638;29;20088;-72
2022/07/12 06:08:05;;;;;;;1.27;0.70;;;;;;;20.50;56.87;100959.41;4890559;29;20028;-71
2022/07/12 06:10:31;;;;;;;0.85;0.65;;;;;;;20.62;56.75;100961.59;4883777;29;20115;-72
2022/07/12 06:12:57;;;;;;;1.27;0.77;;;;;;;20.71;56.29;100968.03;4883582;29;20052;-72
2022/07/12 06:15:24;;;;;;;0.98;0.60;;;;;;;20.80;56.15;100993.09;4883948;29;20100;-70
2022/07/12 06:17:49;;;;;;;3.88;1.35;;;;;;;20.78;56.17;101000.91;4900334;29;20040;-72
2022/07/12 06:20:15;;;;;;;3.53;1.30;;;;;;;20.68;56.04;100991.72;4900487;29;20032;-70
2022/07/12 06:22:40;;;;;;;2.53;1.40;;;;;;;20.65;56.39;100989.56;4890983;29;20531;-70
2022/07/12 06:25:06;;;;;;;1.38;0.90;;;;;;;20.63;56.36;100988.25;4866107;29;20033;-70
2022/07/12 06:27:32;;;;;;;3.65;1.48;;;;;;;20.71;56.10;100988.31;4892753;29;20044;-72
2022/07/12 06:29:57;;;;;;;4.20;1.35;;;;;;;20.83;55.81;100992.44;4866258;29;20033;-72
2022/07/12 06:32:23;;;;;;;3.45;1.55;;;;;;;20.88;55.75;100995.91;4882368;29;20041;-69
2022/07/12 06:34:48;;;;;;;3.47;1.30;;;;;;;20.94;55.56;100993.78;4881864;29;20025;-72
2022/07/12 06:37:14;;;;;;;1.65;1.15;;;;;;;21.10;55.39;101000.53;4898023;29;20033;-70
2022/07/12 06:39:40;;;;;;;3.85;1.40;;;;;;;21.58;54.48;100996.06;4867244;29;20123;-73
2022/07/12 06:42:06;;;;;;;3.15;1.45;;;;;;;21.87;53.61;101002.91;4883133;29;20082;-74
2022/07/12 06:44:32;;;;;;;2.88;1.27;;;;;;;22.00;52.98;100989.94;4883583;29;20033;-71
2022/07/12 06:46:58;;;;;;;3.25;1.50;;;;;;;22.10;52.82;101002.72;4910278;29;20067;-72
2022/07/12 06:49:24;;;;;;;2.92;1.40;;;;;;;22.30;52.66;101004.00;4897304;29;20520;-72
2022/07/12 06:51:49;;;;;;;2.63;1.80;;;;;;;22.47;52.42;101015.13;4887448;29;20052;-71
2022/07/12 06:54:15;;;;;;;2.15;1.52;;;;;;;22.71;51.78;100999.78;4897964;29;20040;-71
2022/07/12 06:56:41;;;;;;;3.30;2.00;;;;;;;22.94;51.59;101011.47;4879771;29;20042;-72
2022/07/12 06:59:10;;;;;;;5.68;2.45;;;;;;;23.11;51.52;101005.00;4897436;29;20039;-69
2022/07/12 07:01:38;;;;;;;3.92;1.90;;;;;;;23.37;51.21;101011.59;4900651;29;20111;-73
2022/07/12 07:04:04;;;;;;;2.72;1.40;;;;;;;23.58;50.29;101019.94;4899625;29;20028;-72
2022/07/12 07:06:29;;;;;;;2.00;1.48;;;;;;;23.80;50.47;101019.63;4868069;29;20080;-73
2022/07/12 07:08:55;;;;;;;4.07;1.67;;;;;;;23.87;49.74;101014.34;4867607;29;20034;-74
2022/07/12 07:11:20;;;;;;;1.77;1.20;;;;;;;24.12;49.80;101008.81;4904065;29;20028;-72
2022/07/12 07:13:46;;;;;;;2.00;1.50;;;;;;;24.42;48.99;101007.88;4886733;29;20029;-74
2022/07/12 07:16:15;;;;;;;3.38;1.60;;;;;;;24.65;48.68;101008.25;4884234;29;20033;-75
2022/07/12 07:18:40;;;;;;;5.20;2.50;;;;;;;24.88;47.72;101005.81;4903140;29;20041;-73
2022/07/12 07:21:06;;;;;;;3.20;2.13;;;;;;;25.12;46.80;101015.41;4872941;29;20039;-74
2022/07/12 07:23:32;;;;;;;4.97;2.70;;;;;;;25.31;46.91;101020.41;4887833;29;20072;-74
2022/07/12 07:25:57;;;;;;;3.20;2.30;;;;;;;25.48;46.52;101022.94;4881245;29;20025;-75
2022/07/12 07:28:23;;;;;;;3.13;2.30;;;;;;;25.62;46.08;101022.53;4880952;29;20033;-74
2022/07/12 07:30:54;;;;;;;3.33;2.28;;;;;;;25.79;45.63;101021.44;4887604;29;20032;-73
2022/07/12 07:33:24;;;;;;;4.10;2.72;;;;;;;25.94;45.30;101025.47;4904308;29;20448;-74
2022/07/12 07:35:51;;;;;;;3.33;1.80;;;;;;;26.04;44.51;101032.59;4900741;29;20036;-74
2022/07/12 07:38:18;;;;;;;2.72;1.50;;;;;;;25.87;45.21;101022.47;4892538;29;20068;-74
2022/07/12 07:40:43;;;;;;;2.80;1.65;;;;;;;25.85;44.97;101025.63;4887877;29;20035;-75
2022/07/12 07:43:11;;;;;;;3.40;1.55;;;;;;;25.89;44.67;101032.16;4877978;29;20033;-76
2022/07/12 07:45:37;;;;;;;3.85;1.55;;;;;;;25.95;44.69;101027.09;4902974;29;20041;-74
2022/07/12 07:48:03;;;;;;;2.33;1.55;;;;;;;26.01;44.17;101028.50;4872781;29;20041;-75
2022/07/12 07:50:31;;;;;;;3.88;1.80;;;;;;;26.04;44.57;101032.59;4890381;29;20063;-76
2022/07/12 07:52:57;;;;;;;2.40;1.30;;;;;;;26.04;44.96;101026.97;4896351;29;20033;-74
2022/07/12 07:55:22;;;;;;;1.60;1.25;;;;;;;25.98;44.87;101023.59;4898174;29;20353;-74
2022/07/12 07:57:48;;;;;;;2.30;1.83;;;;;;;26.04;44.97;101032.59;4899221;29;20021;-74
2022/07/12 08:00:14;;;;;;;1.83;1.23;;;;;;;26.15;45.03;101028.06;4891607;29;20029;-73
2022/07/12 08:02:41;;;;;;;2.70;1.50;;;;;;;26.44;44.14;101021.25;4884578;29;20029;-72
2022/07/12 08:05:07;;;;;;;2.75;1.60;;;;;;;26.71;43.80;101017.94;4879761;29;20033;-72
2022/07/12 08:07:32;;;;;;;2.70;1.67;;;;;;;26.88;43.72;101020.38;4885676;29;20063;-72
2022/07/12 08:09:57;;;;;;;3.28;1.85;;;;;;;27.01;43.21;101018.28;4903088;29;20036;-73
2022/07/12 08:12:23;;;;;;;3.20;1.92;;;;;;;27.18;42.92;101028.31;4913169;29;20084;-72
2022/07/12 08:14:48;;;;;;;2.85;1.70;;;;;;;27.33;42.56;101030.28;4903154;29;20099;-73
2022/07/12 08:17:14;;;;;;;3.20;2.13;;;;;;;27.41;42.92;101024.84;4901615;29;20384;-73
2022/07/12 08:19:39;;;;;;;2.30;1.80;;;;;;;27.40;42.77;101023.22;4895629;29;20064;-73
2022/07/12 08:22:05;;;;;;;2.80;2.05;;;;;;;27.34;42.69;101031.13;4903488;29;20681;-72
2022/07/12 08:24:30;;;;;;;3.00;1.98;;;;;;;27.29;43.10;101037.81;4883335;29;20033;-72
2022/07/12 08:26:56;;;;;;;3.50;1.65;;;;;;;27.38;42.79;101031.19;4900373;29;20041;-72
2022/07/12 08:29:21;;;;;;;4.13;2.15;;;;;;;27.64;42.81;101045.44;4877222;29;20033;-71
2022/07/12 08:31:46;;;;;;;3.92;2.13;;;;;;;28.04;42.19;101047.09;4898100;29;20443;-71
2022/07/12 08:34:12;;;;;;;3.90;2.30;;;;;;;28.30;41.95;101047.56;4895163;29;20040;-72
2022/07/12 08:36:37;;;;;;;4.00;2.55;;;;;;;28.21;41.12;101056.25;4899264;29;20028;-71
2022/07/12 08:39:03;;;;;;;3.75;2.25;;;;;;;28.06;40.91;101054.34;4902659;29;20096;-72
2022/07/12 08:41:29;;;;;;;3.97;2.47;;;;;;;27.98;40.56;101059.00;4905089;29;20032;-73
2022/07/12 08:43:55;;;;;;;3.45;2.03;;;;;;;27.91;41.06;101059.63;4904675;29;20040;-73
2022/07/12 08:46:20;;;;;;;2.17;1.42;;;;;;;27.94;41.08;101053.28;4885394;29;20416;-72
2022/07/12 08:48:46;;;;;;;2.95;1.55;;;;;;;28.09;40.93;101059.22;4897340;29;20035;-73
2022/07/12 08:51:14;;;;;;;2.20;1.30;;;;;;;28.34;40.57;101054.91;4895633;29;20039;-72
2022/07/12 08:53:41;;;;;;;3.50;1.77;;;;;;;28.64;40.37;101051.44;4900499;29;20145;-72
2022/07/12 08:56:07;;;;;;;2.92;1.77;;;;;;;28.57;40.15;101056.91;4904907;29;20032;-71
2022/07/12 08:58:33;;;;;;;1.95;1.50;;;;;;;28.67;39.61;101050.69;4906010;29;20051;-71
2022/07/12 09:01:00;;;;;;;2.95;1.83;;;;;;;29.06;39.33;101056.16;4901055;29;20013;-73
2022/07/12 09:03:25;;;;;;;3.05;1.55;;;;;;;29.57;38.59;101063.38;4902878;29;20039;-74
2022/07/12 09:05:56;;;;;;;2.63;1.83;;;;;;;30.05;38.13;101060.00;4903719;29;20028;-75
2022/07/12 09:08:32;;;;;;;3.28;1.90;;;;;;;30.59;37.12;101062.59;4904060;29;20123;-74
2022/07/12 09:10:58;;;;;;;2.63;1.92;;;;;;;31.01;36.13;101064.19;4912781;29;20036;-75
2022/07/12 09:13:45;;;;;;;2.75;1.70;;;;;;;31.68;35.62;101059.41;4911466;29;20035;-75
2022/07/12 09:16:15;;;;;;;4.70;1.77;;;;;;;32.39;34.01;101043.09;4912213;29;20040;-75
2022/07/12 09:18:42;;;;;;;2.67;1.83;;;;;;;32.87;33.24;101045.56;4903472;29;20052;-74
2022/07/12 09:21:07;;;;;;;2.78;1.80;;;;;;;33.66;31.91;101050.31;4906725;29;20104;-75
2022/07/12 09:23:33;;;;;;;2.92;1.60;;;;;;;34.72;30.62;101052.19;4881330;29;20071;-75
2022/07/12 09:25:58;;;;;;;2.95;1.80;;;;;;;35.72;29.27;101055.25;4910117;29;20045;-75
2022/07/12 09:28:24;;;;;;;2.17;1.50;;;;;;;36.17;28.50;101058.75;4902984;29;20487;-75
2022/07/12 09:30:55;;;;;;;5.25;1.85;;;;;;;36.10;27.72;101058.06;4897001;29;20024;-74
2022/07/12 09:36:06;;;;;;;2.85;1.30;;;;;;;34.89;28.87;101050.44;4891061;29;20112;-74
2022/07/12 09:38:34;;;;;;;3.47;1.13;;;;;;;34.96;28.99;101045.50;4880092;29;20056;-76
2022/07/12 09:41:03;;;;;;;2.55;1.52;;;;;;;35.25;28.15;101028.16;4897380;29;20649;-74
2022/07/12 09:43:29;;;;;;;2.63;1.10;;;;;;;35.98;27.15;101031.78;4902759;29;20075;-75
2022/07/12 09:45:55;;;;;;;2.20;1.27;;;;;;;36.55;26.43;101040.75;4881645;29;20045;-76
2022/07/12 09:48:21;;;;;;;2.97;1.13;;;;;;;36.91;25.92;101037.28;4899482;29;20035;-74
2022/07/12 09:50:49;;;;;;;1.48;1.17;;;;;;;37.26;25.90;101057.84;4899812;29;20024;-74
2022/07/12 09:53:26;;;;;;;3.33;0.98;;;;;;;38.34;25.08;101052.75;4900649;29;20064;-74
2022/07/12 09:55:52;;;;;;;1.50;0.90;;;;;;;39.33;24.08;101067.03;4902957;29;20115;-74
2022/07/12 09:58:24;;;;;;;1.73;1.10;;;;;;;39.86;22.13;101063.09;4887241;29;20067;-75
2022/07/12 10:00:53;;;;;;;1.85;1.00;;;;;;;39.41;21.99;101061.91;4901407;29;20036;-76
2022/07/12 10:03:24;;;;;;;1.40;0.70;;;;;;;39.02;22.58;101056.00;4892369;29;20092;-74
2022/07/12 10:05:51;;;;;;;1.42;0.80;;;;;;;38.47;21.26;101052.06;4886980;29;20029;-74
2022/07/12 10:08:19;;;;;;;1.33;1.02;;;;;;;38.78;21.84;101063.16;4893451;29;20059;-75
2022/07/12 10:10:45;;;;;;;1.80;0.80;;;;;;;38.89;21.41;101055.13;4901665;29;20024;-75
2022/07/12 10:13:11;;;;;;;1.00;0.50;;;;;;;38.40;21.87;101048.13;4901717;29;20036;-75
2022/07/12 10:15:38;;;;;;;1.42;0.60;;;;;;;38.14;21.13;101052.78;4897483;29;20040;-75
2022/07/12 10:18:05;;;;;;;0.88;0.57;;;;;;;38.04;22.28;101059.53;4900195;29;20036;-75
2022/07/12 10:20:31;;;;;;;1.35;0.70;;;;;;;38.52;21.93;101060.09;4890071;29;20520;-75
2022/07/12 10:23:19;;;;;;;0.50;0.47;;;;;;;38.51;21.34;101075.63;4906945;29;20025;-75
2022/07/12 10:25:44;;;;;;;1.02;0.60;;;;;;;37.74;22.68;101052.06;4889770;29;20168;-75
2022/07/12 10:28:10;;;;;;;1.02;0.60;;;;;;;37.68;23.00;101052.53;4881382;29;20106;-74
2022/07/12 10:30:43;;;;;;;0.50;0.40;;;;;;;38.30;22.76;101066.31;4896164;29;20032;-74
2022/07/12 10:33:23;;;;;;;1.15;0.50;;;;;;;38.85;22.46;101065.84;4881583;29;20543;-73
2022/07/12 10:36:05;;;;;;;0.82;0.60;;;;;;;38.52;21.94;101065.81;4884595;29;20055;-74
2022/07/12 10:38:33;;;;;;;0.90;0.70;;;;;;;37.97;22.65;101060.53;4899819;29;20112;-74
2022/07/12 10:41:19;;;;;;;3.92;0.90;;;;;;;37.35;23.55;101055.25;4896400;29;20396;-75
2022/07/12 10:46:29;;;;;;;1.35;0.82;;;;;;;38.91;22.36;101061.19;4896126;29;20132;-75
2022/07/12 10:49:25;;;;;;;1.42;0.88;;;;;;;42.78;19.78;101064.97;4883416;29;20429;-74
2022/07/12 10:52:09;;;;;;;2.08;1.00;;;;;;;44.49;17.43;101070.34;4878041;29;20028;-75
2022/07/12 10:54:36;;;;;;;1.15;0.50;;;;;;;44.49;17.55;101059.63;4899007;29;20024;-74
2022/07/12 10:57:02;;;;;;;0.55;0.40;;;;;;;44.31;17.76;101053.94;4882916;29;20056;-75
2022/07/12 10:59:30;;;;;;;0.30;0.30;;;;;;;43.15;18.78;101047.75;4891009;29;20465;-75
2022/07/12 11:01:56;;;;;;;0.68;0.40;;;;;;;41.81;19.53;101051.63;4883716;29;20032;-73
2022/07/12 11:04:22;;;;;;;0.55;0.40;;;;;;;41.03;20.09;101036.81;4899138;29;20029;-74
2022/07/12 11:06:49;;;;;;;0.85;0.55;;;;;;;40.58;20.62;101043.69;4859845;29;20029;-74
2022/07/12 11:09:17;;;;;;;0.93;0.77;;;;;;;40.14;20.82;101039.34;4905344;29;20028;-75
2022/07/12 11:11:44;;;;;;;0.93;0.60;;;;;;;40.28;20.88;101043.78;4883066;29;20649;-74
2022/07/12 11:14:12;;;;;;;0.95;0.60;;;;;;;41.04;20.19;101037.63;4876250;29;20067;-74
2022/07/12 11:16:45;;;;;;;1.05;0.68;;;;;;;41.70;19.32;101046.28;4888490;29;20490;-75
2022/07/12 11:19:10;;;;;;;1.02;0.80;;;;;;;41.24;19.27;101031.56;4882524;29;20112;-75
2022/07/12 11:21:36;;;;;;;2.05;1.25;;;;;;;40.89;19.74;101035.28;4860712;29;20073;-75
2022/07/12 11:24:01;;;;;;;1.77;0.77;;;;;;;40.26;20.01;101036.91;4864522;29;20759;-75
2022/07/12 11:26:27;;;;;;;2.17;0.73;;;;;;;39.54;20.58;101041.94;4878364;29;20070;-74
2022/07/12 11:28:57;;;;;;;1.00;0.90;;;;;;;39.64;20.70;101034.31;4894223;29;20543;-75
2022/07/12 11:31:25;;;;;;;3.20;0.88;;;;;;;40.24;19.95;101039.44;4880546;29;20013;-75